createdAt,value
2022-10-05T00:01:11.303Z,101018.88
2022-10-05T00:04:21.990Z,101015.63
2022-10-05T00:07:25.031Z,101014.53
2022-10-05T00:10:29.330Z,101022.72
2022-10-05T00:13:31.835Z,101021.16
2022-10-05T00:16:35.003Z,101020.78
2022-10-05T00:19:38.769Z,101018.94
2022-10-05T00:22:41.638Z,101013.63
2022-10-05T00:25:44.268Z,101012.28
2022-10-05T00:28:47.601Z,101010.28
2022-10-05T00:31:50.537Z,101025.09
2022-10-05T00:34:53.675Z,101019.25
2022-10-05T00:37:57.133Z,101008.44
2022-10-05T00:41:13.669Z,101007.59
2022-10-05T00:44:43.441Z,101009.41
2022-10-05T00:48:01.580Z,101016.44
2022-10-05T00:51:26.287Z,101019.38
2022-10-05T00:54:36.733Z,101016.00
2022-10-05T00:58:21.563Z,101009.75
2022-10-05T01:01:33.203Z,101016.97
2022-10-05T01:04:44.634Z,101015.16
2022-10-05T01:07:47.503Z,101007.78
2022-10-05T01:11:19.151Z,101005.88
2022-10-05T01:14:32.709Z,101013.09
2022-10-05T01:17:35.162Z,101013.63
2022-10-05T01:21:03.403Z,101020.00
2022-10-05T01:24:24.235Z,101022.19
2022-10-05T01:27:55.951Z,101026.75
2022-10-05T01:31:01.475Z,101017.78
2022-10-05T01:34:13.785Z,101025.00
2022-10-05T01:37:30.361Z,101038.00
2022-10-05T01:40:45.374Z,101052.78
2022-10-05T01:43:52.583Z,101040.63
2022-10-05T01:47:19.979Z,101043.16
2022-10-05T01:50:42.956Z,101046.97
2022-10-05T01:54:12.997Z,101047.50
2022-10-05T01:57:27.693Z,101055.31
2022-10-05T02:00:33.718Z,101044.66
2022-10-05T02:03:50.200Z,101055.03
2022-10-05T02:06:53.305Z,101050.56
2022-10-05T02:10:01.988Z,101055.03
2022-10-05T02:13:11.846Z,101050.34
2022-10-05T02:16:17.940Z,101056.72
2022-10-05T02:19:27.700Z,101051.53
2022-10-05T02:22:49.759Z,101053.34
2022-10-05T02:25:54.429Z,101055.88
2022-10-05T02:29:03.480Z,101057.91
2022-10-05T02:32:17.272Z,101056.94
2022-10-05T02:35:21.880Z,101062.22
2022-10-05T02:38:34.258Z,101071.84
2022-10-05T02:42:02.269Z,101067.72
2022-10-05T02:45:10.935Z,101070.87
2022-10-05T02:48:19.647Z,101064.75
2022-10-05T02:51:27.693Z,101067.50
2022-10-05T02:54:58.774Z,101070.34
2022-10-05T02:58:18.500Z,101077.53
2022-10-05T03:01:30.719Z,101074.69
2022-10-05T03:04:54.967Z,101078.81
2022-10-05T03:08:06.032Z,101087.34
2022-10-05T03:11:27.991Z,101088.41
2022-10-05T03:14:38.335Z,101088.31
2022-10-05T03:17:58.933Z,101074.16
2022-10-05T03:21:07.678Z,101077.94
2022-10-05T03:24:10.206Z,101075.31
2022-10-05T03:27:31.529Z,101067.50
2022-10-05T03:30:45.519Z,101052.50
2022-10-05T03:33:56.512Z,101065.16
2022-10-05T03:37:03.340Z,101048.97
2022-10-05T03:40:26.257Z,101057.19
2022-10-05T03:43:57.327Z,101067.69
2022-10-05T03:47:00.299Z,101067.81
2022-10-05T03:50:24.869Z,101079.97
2022-10-05T03:53:30.385Z,101081.19
2022-10-05T03:56:43.848Z,101085.63
2022-10-05T03:59:46.910Z,101090.84
2022-10-05T04:03:10.347Z,101084.78
2022-10-05T04:06:21.155Z,101087.53
2022-10-05T04:09:39.995Z,101092.38
2022-10-05T04:12:48.027Z,101078.63
2022-10-05T04:16:14.233Z,101084.56
2022-10-05T04:19:23.558Z,101084.84
2022-10-05T04:22:32.362Z,101089.84
2022-10-05T04:25:45.465Z,101084.66
2022-10-05T04:28:58.348Z,101086.88
2022-10-05T04:32:16.352Z,101090.13
2022-10-05T04:35:48.281Z,101082.31
2022-10-05T04:39:00.817Z,101089.09
2022-10-05T04:42:25.621Z,101096.91
2022-10-05T04:45:45.522Z,101095.09
2022-10-05T04:49:11.638Z,101093.41
2022-10-05T04:52:42.093Z,101088.84
2022-10-05T04:56:02.038Z,101089.81
2022-10-05T04:59:43.152Z,101089.50
2022-10-05T05:03:15.645Z,101088.75
2022-10-05T05:06:30.878Z,101080.94
2022-10-05T05:09:59.628Z,101085.28
2022-10-05T05:13:28.243Z,101079.25
2022-10-05T05:16:40.607Z,101082.00
2022-10-05T05:19:55.872Z,101079.75
2022-10-05T05:23:21.256Z,101084.31
2022-10-05T05:26:29.614Z,101085.69
2022-10-05T05:30:04.642Z,101090.78
2022-10-05T05:33:23.752Z,101099.34
2022-10-05T05:36:46.071Z,101086.47
2022-10-05T05:39:49.116Z,101097.81
2022-10-05T05:42:59.631Z,101094.34
2022-10-05T05:46:15.922Z,101103.75
2022-10-05T05:49:27.827Z,101109.34
2022-10-05T05:52:34.724Z,101110.44
2022-10-05T05:55:42.762Z,101117.19
2022-10-05T05:58:51.869Z,101128.81
2022-10-05T06:02:11.571Z,101134.75
2022-10-05T06:05:23.754Z,101147.53
2022-10-05T06:08:49.770Z,101144.78
2022-10-05T06:12:00.963Z,101159.09
2022-10-05T06:15:24.599Z,101174.53
2022-10-05T06:18:28.594Z,101167.84
2022-10-05T06:21:58.095Z,101167.00
2022-10-05T06:25:06.911Z,101177.47
2022-10-05T06:28:11.222Z,101188.16
2022-10-05T06:31:20.975Z,101193.31
2022-10-05T06:34:38.136Z,101187.59
2022-10-05T06:37:59.307Z,101205.75
2022-10-05T06:41:05.033Z,101197.03
2022-10-05T06:44:16.314Z,101186.44
2022-10-05T06:47:43.872Z,101191.69
2022-10-05T06:50:52.903Z,101195.87
2022-10-05T06:54:23.159Z,101198.47
2022-10-05T06:57:49.762Z,101203.84
2022-10-05T07:01:00.193Z,101202.66
2022-10-05T07:04:24.817Z,101212.34
2022-10-05T07:08:01.413Z,101222.28
2022-10-05T07:11:07.233Z,101229.41
2022-10-05T07:14:14.415Z,101237.13
2022-10-05T07:17:23.367Z,101235.59
2022-10-05T07:20:44.491Z,101221.09
2022-10-05T07:23:52.933Z,101225.09
2022-10-05T07:27:13.991Z,101228.59
2022-10-05T07:30:17.205Z,101227.22
2022-10-05T07:33:25.920Z,101236.84
2022-10-05T07:36:56.819Z,101239.25
2022-10-05T07:40:08.706Z,101236.28
2022-10-05T07:43:17.853Z,101242.34
2022-10-05T07:46:43.631Z,101230.41
2022-10-05T07:50:04.210Z,101236.72
2022-10-05T07:53:22.621Z,101233.69
2022-10-05T07:56:36.929Z,101219.47
2022-10-05T08:00:32.560Z,101219.81
2022-10-05T08:03:54.823Z,101226.59
2022-10-05T08:07:00.929Z,101231.84
2022-10-05T08:10:55.259Z,101233.25
2022-10-05T08:14:16.685Z,101237.91
2022-10-05T08:17:29.685Z,101213.25
2022-10-05T08:20:40.059Z,101208.56
2022-10-05T08:23:50.834Z,101215.53
2022-10-05T08:27:10.223Z,101204.50
2022-10-05T08:30:15.373Z,101195.25
2022-10-05T08:33:19.174Z,101195.87
2022-10-05T08:36:39.209Z,101192.34
2022-10-05T08:40:10.648Z,101206.44
2022-10-05T08:43:35.439Z,101207.50
2022-10-05T08:46:47.087Z,101211.09
2022-10-05T08:50:27.964Z,101203.06
2022-10-05T08:54:11.737Z,101210.56
2022-10-05T08:57:40.480Z,101201.09
2022-10-05T09:01:03.227Z,101203.88
2022-10-05T09:08:20.998Z,101210.06
2022-10-05T09:11:36.794Z,101214.78
2022-10-05T09:15:24.435Z,101213.53
2022-10-05T09:18:41.306Z,101222.94
2022-10-05T09:22:22.730Z,101214.06
2022-10-05T09:25:40.528Z,101219.25
2022-10-05T09:28:48.936Z,101219.47
2022-10-05T09:32:29.568Z,101220.78
2022-10-05T09:36:07.446Z,101221.13
2022-10-05T09:39:15.395Z,101209.87
2022-10-05T09:42:24.283Z,101218.41
2022-10-05T09:45:54.450Z,101222.78
2022-10-05T09:49:15.172Z,101220.56
2022-10-05T09:52:33.832Z,101211.28
2022-10-05T09:56:09.921Z,101213.31
2022-10-05T10:00:09.742Z,101204.34
2022-10-05T10:03:43.021Z,101217.50
2022-10-05T10:07:05.055Z,101215.63
2022-10-05T10:10:29.392Z,101208.06
2022-10-05T10:14:02.471Z,101212.56
2022-10-05T10:17:10.538Z,101217.34
2022-10-05T10:20:25.817Z,101209.19
2022-10-05T10:24:09.782Z,101207.28
2022-10-05T10:27:52.427Z,101209.72
2022-10-05T10:31:35.556Z,101216.25
2022-10-05T10:35:19.991Z,101211.22
2022-10-05T10:38:58.425Z,101214.28
2022-10-05T10:42:10.591Z,101216.34
2022-10-05T10:45:20.127Z,101212.94
2022-10-05T10:48:28.907Z,101207.19
2022-10-05T10:51:37.022Z,101208.50
2022-10-05T10:54:57.511Z,101216.56
2022-10-05T10:58:21.467Z,101214.72
2022-10-05T11:01:34.796Z,101211.50
2022-10-05T11:05:02.945Z,101216.41
2022-10-05T11:08:08.836Z,101216.56
2022-10-05T11:11:30.977Z,101213.69
2022-10-05T11:14:52.475Z,101207.81
2022-10-05T11:18:10.251Z,101202.72
2022-10-05T11:21:31.823Z,101202.00
2022-10-05T11:24:50.253Z,101194.88
2022-10-05T11:28:15.218Z,101198.59
2022-10-05T11:31:37.441Z,101195.91
2022-10-05T11:35:01.755Z,101191.81
2022-10-05T11:38:21.689Z,101186.59
2022-10-05T11:41:42.847Z,101182.25
2022-10-05T11:45:23.164Z,101181.22
2022-10-05T11:48:55.502Z,101184.69
2022-10-05T11:52:34.142Z,101179.37
2022-10-05T11:55:49.817Z,101176.59
2022-10-05T11:59:31.397Z,101178.47
2022-10-05T12:02:58.408Z,101171.12
2022-10-05T12:06:23.421Z,101164.22
2022-10-05T12:09:38.674Z,101154.09
2022-10-05T12:13:02.653Z,101149.81
2022-10-05T12:16:10.783Z,101159.03
2022-10-05T12:19:19.044Z,101153.81
2022-10-05T12:22:33.184Z,101153.91
2022-10-05T12:25:58.756Z,101154.28
2022-10-05T12:29:10.358Z,101151.69
2022-10-05T12:32:19.112Z,101146.13
2022-10-05T12:35:49.510Z,101144.72
2022-10-05T12:38:54.796Z,101139.16
2022-10-05T12:42:26.059Z,101136.16
2022-10-05T12:45:53.688Z,101132.16
2022-10-05T12:49:13.244Z,101132.44
2022-10-05T12:53:01.894Z,101117.94
2022-10-05T12:56:10.314Z,101122.41
2022-10-05T12:59:22.138Z,101115.63
2022-10-05T13:02:39.231Z,101117.22
2022-10-05T13:06:02.741Z,101122.13
2022-10-05T13:09:28.966Z,101128.91
2022-10-05T13:13:05.540Z,101124.00
2022-10-05T13:16:11.250Z,101115.91
2022-10-05T13:19:32.692Z,101122.63
2022-10-05T13:22:43.921Z,101129.31
2022-10-05T13:26:07.832Z,101115.66
2022-10-05T13:29:54.323Z,101104.78
2022-10-05T13:32:57.978Z,101097.63
2022-10-05T13:36:03.567Z,101101.53
2022-10-05T13:39:37.551Z,101098.47
2022-10-05T13:42:44.674Z,101105.44
2022-10-05T13:45:57.005Z,101103.97
2022-10-05T13:49:07.106Z,101099.59
2022-10-05T13:52:30.932Z,101097.09
2022-10-05T13:55:54.729Z,101096.59
2022-10-05T13:59:30.432Z,101094.91
2022-10-05T14:02:43.982Z,101102.78
2022-10-05T14:05:56.407Z,101114.87
2022-10-05T14:09:00.442Z,101118.78
2022-10-05T14:12:03.260Z,101106.31
2022-10-05T14:15:30.523Z,101102.59
2022-10-05T14:18:37.221Z,101111.53
2022-10-05T14:22:02.919Z,101106.59
2022-10-05T14:25:08.618Z,101103.72
2022-10-05T14:28:29.513Z,101102.25
2022-10-05T14:31:37.196Z,101102.88
2022-10-05T14:34:57.374Z,101105.94
2022-10-05T14:38:02.815Z,101103.81
2022-10-05T14:41:19.350Z,101101.69
2022-10-05T14:47:50.485Z,101107.69
2022-10-05T14:50:59.555Z,101114.25
2022-10-05T14:54:14.937Z,101109.91
2022-10-05T14:57:25.295Z,101108.22
2022-10-05T15:00:28.845Z,101099.03
2022-10-05T15:03:57.790Z,101090.84
2022-10-05T15:07:31.242Z,101088.50
2022-10-05T15:10:43.425Z,101077.63
2022-10-05T15:13:48.633Z,101072.09
2022-10-05T15:17:02.540Z,101080.25
2022-10-05T15:20:24.633Z,101076.22
2022-10-05T15:23:35.774Z,101077.13
2022-10-05T15:26:59.198Z,101082.22
2022-10-05T15:30:11.833Z,101086.16
2022-10-05T15:33:28.830Z,101087.22
2022-10-05T15:36:54.552Z,101075.31
2022-10-05T15:40:00.141Z,101074.37
2022-10-05T15:43:20.192Z,101067.19
2022-10-05T15:46:34.199Z,101058.78
2022-10-05T15:50:04.767Z,101059.69
2022-10-05T15:53:13.644Z,101063.56
2022-10-05T15:56:23.621Z,101070.84
2022-10-05T16:00:00.392Z,101066.84
2022-10-05T16:03:26.225Z,101065.66
2022-10-05T16:06:59.481Z,101062.53
2022-10-05T16:10:21.476Z,101073.12
2022-10-05T16:13:36.002Z,101075.19
2022-10-05T16:16:47.835Z,101070.19
2022-10-05T16:19:59.723Z,101075.41
2022-10-05T16:23:14.075Z,101075.56
2022-10-05T16:26:32.695Z,101077.63
2022-10-05T16:29:50.608Z,101074.94
2022-10-05T16:33:15.973Z,101080.25
2022-10-05T16:36:40.124Z,101081.94
2022-10-05T16:39:52.057Z,101079.94
2022-10-05T16:43:00.884Z,101083.97
2022-10-05T16:46:22.414Z,101081.28
2022-10-05T16:49:31.487Z,101087.28
2022-10-05T16:52:37.415Z,101097.00
2022-10-05T16:55:45.437Z,101098.50
2022-10-05T16:59:44.090Z,101103.84
2022-10-05T17:03:10.286Z,101117.00
2022-10-05T17:06:36.991Z,101114.47
2022-10-05T17:10:01.314Z,101117.97
2022-10-05T17:13:16.401Z,101113.84
2022-10-05T17:16:30.640Z,101118.66
2022-10-05T17:19:34.266Z,101120.63
2022-10-05T17:22:59.142Z,101127.78
2022-10-05T17:26:22.712Z,101120.03
2022-10-05T17:29:54.734Z,101124.16
2022-10-05T17:33:14.189Z,101120.25
2022-10-05T17:36:18.734Z,101126.56
2022-10-05T17:39:23.484Z,101132.88
2022-10-05T17:42:31.823Z,101133.47
2022-10-05T17:45:34.574Z,101132.41
2022-10-05T17:48:49.148Z,101127.53
2022-10-05T17:52:10.364Z,101124.78
2022-10-05T17:55:27.028Z,101137.25
2022-10-05T17:58:29.820Z,101134.78
2022-10-05T18:01:33.947Z,101136.38
2022-10-05T18:04:42.168Z,101133.31
2022-10-05T18:08:10.366Z,101125.59
2022-10-05T18:11:28.461Z,101135.22
2022-10-05T18:14:50.497Z,101131.59
2022-10-05T18:17:59.639Z,101131.19
2022-10-05T18:21:14.698Z,101130.50
2022-10-05T18:24:25.344Z,101122.78
2022-10-05T18:27:50.406Z,101122.72
2022-10-05T18:31:32.342Z,101133.84
2022-10-05T18:34:45.339Z,101128.94
2022-10-05T18:37:55.484Z,101136.56
2022-10-05T18:41:12.827Z,101126.00
2022-10-05T18:45:00.576Z,101122.09
2022-10-05T18:48:06.706Z,101131.84
2022-10-05T18:51:36.761Z,101132.28
2022-10-05T18:55:06.139Z,101128.37
2022-10-05T18:58:11.201Z,101129.97
2022-10-05T19:01:28.000Z,101130.53
2022-10-05T19:04:43.488Z,101137.16
2022-10-05T19:08:01.700Z,101122.25
2022-10-05T19:11:04.900Z,101125.22
2022-10-05T19:14:45.367Z,101132.00
2022-10-05T19:18:06.654Z,101133.28
2022-10-05T19:21:18.590Z,101131.72
2022-10-05T19:24:55.126Z,101132.03
2022-10-05T19:28:17.266Z,101136.09
2022-10-05T19:31:29.533Z,101134.66
2022-10-05T19:34:44.962Z,101141.13
2022-10-05T19:38:03.595Z,101144.22
2022-10-05T19:41:12.271Z,101143.97
2022-10-05T19:44:38.411Z,101144.09
2022-10-05T19:47:52.998Z,101149.72
2022-10-05T19:50:58.548Z,101140.75
2022-10-05T19:54:03.388Z,101142.59
2022-10-05T19:57:17.108Z,101146.78
2022-10-05T20:00:25.611Z,101148.31
2022-10-05T20:03:30.366Z,101161.66
2022-10-05T20:06:33.748Z,101155.47
2022-10-05T20:10:02.212Z,101162.09
2022-10-05T20:13:08.596Z,101161.38
2022-10-05T20:16:36.265Z,101160.81
2022-10-05T20:19:54.509Z,101162.94
2022-10-05T20:23:21.082Z,101166.72
2022-10-05T20:27:02.421Z,101167.84
2022-10-05T20:30:06.393Z,101158.00
2022-10-05T20:33:14.637Z,101170.50
2022-10-05T20:36:17.381Z,101175.53
2022-10-05T20:39:21.330Z,101173.13
2022-10-05T20:42:24.217Z,101171.72
2022-10-05T20:45:26.760Z,101175.38
2022-10-05T20:48:29.971Z,101177.91
2022-10-05T20:51:32.825Z,101177.06
2022-10-05T20:54:36.777Z,101176.91
2022-10-05T20:57:42.236Z,101178.59
2022-10-05T21:01:06.145Z,101181.97
2022-10-05T21:04:09.639Z,101178.03
2022-10-05T21:07:12.451Z,101168.63
2022-10-05T21:10:15.190Z,101179.44
2022-10-05T21:13:18.464Z,101173.53
2022-10-05T21:16:21.113Z,101173.66
2022-10-05T21:19:23.925Z,101187.69
2022-10-05T21:22:26.379Z,101187.84
2022-10-05T21:25:29.273Z,101176.19
2022-10-05T21:28:32.344Z,101175.34
2022-10-05T21:31:35.569Z,101179.97
2022-10-05T21:34:38.832Z,101174.47
2022-10-05T21:37:41.694Z,101171.66
2022-10-05T21:40:46.123Z,101172.50
2022-10-05T21:43:49.275Z,101174.31
2022-10-05T21:46:51.991Z,101174.59
2022-10-05T21:49:54.890Z,101170.53
2022-10-05T21:52:58.869Z,101169.81
2022-10-05T21:56:03.413Z,101163.91
2022-10-05T21:59:09.588Z,101171.78
2022-10-05T22:02:12.400Z,101168.81
2022-10-05T22:05:15.594Z,101164.03
2022-10-05T22:08:24.563Z,101171.72
2022-10-05T22:11:28.998Z,101160.22
2022-10-05T22:14:32.182Z,101164.91
2022-10-05T22:17:35.886Z,101153.41
2022-10-05T22:20:38.522Z,101155.25
2022-10-05T22:23:42.658Z,101153.69
2022-10-05T22:26:47.254Z,101151.72
2022-10-05T22:29:51.385Z,101151.59
2022-10-05T22:32:53.955Z,101152.56
2022-10-05T22:36:00.285Z,101146.41
2022-10-05T22:39:03.667Z,101157.06
2022-10-05T22:42:06.981Z,101144.59
2022-10-05T22:45:09.691Z,101149.19
2022-10-05T22:48:12.723Z,101147.66
2022-10-05T22:51:15.892Z,101146.25
2022-10-05T22:58:54.818Z,101144.00
2022-10-05T23:01:58.340Z,101137.97
2022-10-05T23:05:00.982Z,101135.19
2022-10-05T23:08:03.998Z,101132.37
2022-10-05T23:11:18.386Z,101125.37
2022-10-05T23:14:21.329Z,101125.37
2022-10-05T23:17:23.899Z,101125.66
2022-10-05T23:20:26.970Z,101124.81
2022-10-05T23:23:29.552Z,101115.84
2022-10-05T23:26:33.465Z,101126.22
2022-10-05T23:29:35.975Z,101122.72
2022-10-05T23:32:43.484Z,101125.66
2022-10-05T23:35:46.033Z,101124.66
2022-10-05T23:38:49.158Z,101120.59
2022-10-05T23:41:51.751Z,101115.25
2022-10-05T23:44:54.500Z,101114.28
2022-10-05T23:47:56.970Z,101113.31
2022-10-05T23:51:00.197Z,101104.47
2022-10-05T23:54:02.681Z,101113.31
2022-10-05T23:57:05.433Z,101107.97
